GTI56 SPJC-KMIA
Flight info
| Callsign | GTI56 |
|---|---|
| Flight time | N/A |
| Altitude | 34000 |
| Route | ILROL UM795 LOBOT/N0506F340 UM795 BOKAN UM795 COLBY/N0499F360 DCT NIBEO DCT ALTIB UM779 ZEUSS |
| Aircraft | B742/H-SDFHIRUWXY/L |
Departure
| Time | N/A |
|---|---|
| Airport | Jorge Chávez International Airport (SPJC) |
Arrival
| Time | 2026-05-04 18:15 |
|---|---|
| Airport | Miami International Airport (KMIA) |
| Time | Latitude | Longitude | Altitude | Speed | Heading |
|---|---|---|---|---|---|
| 2026-05-04 15:10 | 2.89353 | -77.99226 | 33928 ft | 491 kts | 359° |
| 2026-05-04 15:11 | 2.92743 | -77.99408 | 33925 ft | 491 kts | 359° |
| 2026-05-04 15:11 | 2.99601 | -77.99777 | 33928 ft | 492 kts | 359° |
| 2026-05-04 15:12 | 3.06490 | -78.00147 | 33926 ft | 492 kts | 359° |
| 2026-05-04 15:12 | 3.13372 | -78.00517 | 33930 ft | 490 kts | 359° |
| 2026-05-04 15:13 | 3.20181 | -78.00884 | 33931 ft | 490 kts | 359° |
| 2026-05-04 15:13 | 3.27047 | -78.01253 | 33932 ft | 489 kts | 359° |
| 2026-05-04 15:14 | 3.33848 | -78.01619 | 33935 ft | 490 kts | 359° |
| 2026-05-04 15:14 | 3.40708 | -78.01988 | 33943 ft | 491 kts | 359° |
| 2026-05-04 15:15 | 3.47524 | -78.02355 | 33945 ft | 490 kts | 359° |
| 2026-05-04 15:15 | 3.54345 | -78.02722 | 33946 ft | 489 kts | 359° |
| 2026-05-04 15:16 | 3.64563 | -78.03272 | 33937 ft | 488 kts | 359° |
| 2026-05-04 15:17 | 3.74798 | -78.03823 | 33925 ft | 490 kts | 359° |
| 2026-05-04 15:17 | 3.85066 | -78.04377 | 33925 ft | 488 kts | 359° |
| 2026-05-04 15:18 | 3.91850 | -78.04742 | 33925 ft | 488 kts | 359° |
| 2026-05-04 15:19 | 4.02058 | -78.05293 | 33922 ft | 486 kts | 359° |
| 2026-05-04 15:19 | 4.12241 | -78.05840 | 33924 ft | 489 kts | 359° |
| 2026-05-04 15:20 | 4.19109 | -78.06210 | 33923 ft | 491 kts | 359° |
| 2026-05-04 15:20 | 4.25950 | -78.06580 | 33923 ft | 492 kts | 359° |
| 2026-05-04 15:21 | 4.32819 | -78.06950 | 33924 ft | 491 kts | 359° |
| 2026-05-04 15:22 | 4.43107 | -78.07506 | 33924 ft | 491 kts | 359° |
| 2026-05-04 15:22 | 4.53392 | -78.08060 | 33926 ft | 495 kts | 359° |
| 2026-05-04 15:23 | 4.60321 | -78.08434 | 33922 ft | 495 kts | 359° |
| 2026-05-04 15:23 | 4.67244 | -78.08808 | 33923 ft | 495 kts | 358° |
| 2026-05-04 15:24 | 4.81008 | -78.09812 | 33924 ft | 496 kts | 356° |
| 2026-05-04 15:25 | 4.87947 | -78.10410 | 33924 ft | 497 kts | 357° |
| 2026-05-04 15:26 | 4.98344 | -78.11076 | 33926 ft | 498 kts | 358° |
| 2026-05-04 15:26 | 5.08773 | -78.11654 | 33943 ft | 497 kts | 358° |
| 2026-05-04 15:27 | 5.19203 | -78.12230 | 33942 ft | 498 kts | 358° |
| 2026-05-04 15:28 | 5.29597 | -78.12806 | 33941 ft | 498 kts | 358° |
| 2026-05-04 15:29 | 5.40024 | -78.13384 | 33939 ft | 498 kts | 358° |
| 2026-05-04 15:30 | 5.64374 | -78.14735 | 33936 ft | 499 kts | 358° |
| 2026-05-04 15:31 | 5.74774 | -78.15312 | 33930 ft | 499 kts | 358° |
| 2026-05-04 15:32 | 5.92184 | -78.16278 | 33927 ft | 499 kts | 358° |
| 2026-05-04 15:34 | 6.09556 | -78.17244 | 33920 ft | 498 kts | 358° |
| 2026-05-04 15:34 | 6.20014 | -78.17839 | 33918 ft | 500 kts | 358° |
| 2026-05-04 15:35 | 6.30446 | -78.18430 | 33920 ft | 499 kts | 358° |
| 2026-05-04 15:36 | 6.40866 | -78.19016 | 33915 ft | 499 kts | 358° |
| 2026-05-04 15:36 | 6.47828 | -78.19408 | 33914 ft | 499 kts | 358° |
| 2026-05-04 15:37 | 6.54772 | -78.19798 | 33913 ft | 499 kts | 358° |
| 2026-05-04 15:37 | 6.61769 | -78.20192 | 33910 ft | 499 kts | 358° |
| 2026-05-04 15:38 | 6.68723 | -78.20584 | 33907 ft | 499 kts | 358° |
| 2026-05-04 15:38 | 6.75677 | -78.20976 | 33910 ft | 499 kts | 358° |
| 2026-05-04 15:39 | 6.82633 | -78.21283 | 33909 ft | 499 kts | 0° |
| 2026-05-04 15:40 | 6.93054 | -78.21039 | 33904 ft | 498 kts | 3° |
| 2026-05-04 15:40 | 7.00032 | -78.20708 | 33903 ft | 499 kts | 4° |
| 2026-05-04 15:41 | 7.06994 | -78.20370 | 33902 ft | 498 kts | 4° |
| 2026-05-04 15:41 | 7.13955 | -78.20038 | 33904 ft | 498 kts | 4° |
| 2026-05-04 15:42 | 7.20901 | -78.19708 | 33904 ft | 499 kts | 4° |
| 2026-05-04 15:42 | 7.27869 | -78.19378 | 33904 ft | 499 kts | 4° |
| 2026-05-04 15:43 | 7.34796 | -78.19048 | 33903 ft | 498 kts | 4° |
| 2026-05-04 15:43 | 7.41780 | -78.18716 | 33904 ft | 499 kts | 4° |
| 2026-05-04 15:44 | 7.48739 | -78.18383 | 33907 ft | 499 kts | 3° |
| 2026-05-04 15:44 | 7.55684 | -78.18051 | 33918 ft | 498 kts | 3° |
| 2026-05-04 15:45 | 7.62668 | -78.17718 | 33944 ft | 498 kts | 3° |
| 2026-05-04 15:45 | 7.69591 | -78.17386 | 33962 ft | 498 kts | 3° |
| 2026-05-04 15:46 | 7.76543 | -78.17049 | 33981 ft | 498 kts | 4° |
| 2026-05-04 15:46 | 7.83523 | -78.16706 | 33971 ft | 498 kts | 4° |
| 2026-05-04 15:47 | 7.90450 | -78.16363 | 33956 ft | 498 kts | 4° |
| 2026-05-04 15:47 | 7.97399 | -78.16019 | 33940 ft | 498 kts | 3° |
| 2026-05-04 15:48 | 8.04376 | -78.15654 | 33926 ft | 497 kts | 4° |
| 2026-05-04 15:48 | 8.14756 | -78.15035 | 33917 ft | 497 kts | 4° |
| 2026-05-04 15:49 | 8.21690 | -78.14623 | 33909 ft | 496 kts | 4° |
| 2026-05-04 15:49 | 8.28612 | -78.14238 | 33904 ft | 496 kts | 3° |
| 2026-05-04 15:50 | 8.35576 | -78.13903 | 33905 ft | 496 kts | 3° |
| 2026-05-04 15:50 | 8.42468 | -78.13882 | 33907 ft | 496 kts | 359° |
| 2026-05-04 15:51 | 8.49439 | -78.14220 | 33907 ft | 496 kts | 357° |
| 2026-05-04 15:51 | 8.56354 | -78.14652 | 33912 ft | 495 kts | 357° |
| 2026-05-04 15:52 | 8.63248 | -78.15091 | 33919 ft | 495 kts | 357° |
| 2026-05-04 15:52 | 8.70165 | -78.15524 | 33927 ft | 496 kts | 357° |
| 2026-05-04 15:53 | 8.77073 | -78.15951 | 33935 ft | 495 kts | 357° |
| 2026-05-04 15:53 | 8.84009 | -78.16376 | 33937 ft | 496 kts | 357° |
| 2026-05-04 15:54 | 8.90901 | -78.16796 | 33935 ft | 494 kts | 356° |
| 2026-05-04 15:54 | 8.97805 | -78.17214 | 33933 ft | 493 kts | 356° |
| 2026-05-04 15:55 | 9.04650 | -78.17619 | 33930 ft | 493 kts | 357° |
| 2026-05-04 15:55 | 9.11554 | -78.18021 | 33928 ft | 494 kts | 357° |
| 2026-05-04 15:56 | 9.18446 | -78.18422 | 33925 ft | 494 kts | 357° |
| 2026-05-04 15:56 | 9.25320 | -78.18824 | 33924 ft | 495 kts | 357° |
| 2026-05-04 15:57 | 9.32260 | -78.19231 | 33919 ft | 494 kts | 357° |
| 2026-05-04 15:57 | 9.39132 | -78.19637 | 33915 ft | 494 kts | 357° |
| 2026-05-04 15:58 | 9.45978 | -78.20040 | 33910 ft | 494 kts | 357° |
| 2026-05-04 15:58 | 9.52876 | -78.20446 | 33905 ft | 493 kts | 357° |
| 2026-05-04 15:59 | 9.59758 | -78.20852 | 33905 ft | 493 kts | 357° |
| 2026-05-04 15:59 | 9.66653 | -78.21259 | 33905 ft | 494 kts | 357° |
| 2026-05-04 16:00 | 9.73524 | -78.21664 | 33905 ft | 494 kts | 357° |
| 2026-05-04 16:00 | 9.80373 | -78.22068 | 33905 ft | 493 kts | 357° |
| 2026-05-04 16:01 | 9.87285 | -78.22473 | 33904 ft | 494 kts | 357° |
| 2026-05-04 16:01 | 9.94144 | -78.22842 | 33904 ft | 494 kts | 357° |
| 2026-05-04 16:02 | 10.01025 | -78.23179 | 33905 ft | 492 kts | 357° |
| 2026-05-04 16:03 | 10.11356 | -78.23672 | 33904 ft | 493 kts | 357° |
| 2026-05-04 16:03 | 10.18219 | -78.24000 | 33904 ft | 493 kts | 357° |
| 2026-05-04 16:04 | 10.25096 | -78.24335 | 33905 ft | 492 kts | 357° |
| 2026-05-04 16:04 | 10.35421 | -78.24885 | 33910 ft | 494 kts | 356° |
| 2026-05-04 16:05 | 10.42311 | -78.25269 | 33908 ft | 495 kts | 356° |
| 2026-05-04 16:06 | 10.52635 | -78.25848 | 33911 ft | 495 kts | 356° |
| 2026-05-04 16:07 | 10.66460 | -78.26630 | 33911 ft | 498 kts | 356° |
| 2026-05-04 16:08 | 10.80413 | -78.27425 | 33912 ft | 501 kts | 356° |
| 2026-05-04 16:09 | 10.97820 | -78.28424 | 33909 ft | 500 kts | 356° |
| 2026-05-04 16:10 | 11.11754 | -78.29227 | 33913 ft | 500 kts | 356° |
| 2026-05-04 16:11 | 11.25698 | -78.30036 | 33919 ft | 500 kts | 356° |
| 2026-05-04 16:12 | 11.46522 | -78.31518 | 33910 ft | 499 kts | 356° |
| 2026-05-04 16:13 | 11.60466 | -78.32357 | 33911 ft | 499 kts | 356° |
| 2026-05-04 16:14 | 11.74370 | -78.33166 | 33908 ft | 498 kts | 356° |
| 2026-05-04 16:16 | 11.91711 | -78.34179 | 33905 ft | 498 kts | 356° |
| 2026-05-04 16:17 | 12.09054 | -78.35194 | 33909 ft | 498 kts | 356° |
| 2026-05-04 16:18 | 12.22913 | -78.36005 | 33914 ft | 498 kts | 356° |
| 2026-05-04 16:19 | 12.40303 | -78.37026 | 33918 ft | 499 kts | 356° |
| 2026-05-04 16:20 | 12.57674 | -78.38046 | 33928 ft | 498 kts | 356° |
| 2026-05-04 16:22 | 12.75044 | -78.39068 | 33921 ft | 498 kts | 356° |
| 2026-05-04 16:23 | 12.95877 | -78.40295 | 33926 ft | 499 kts | 355° |
| 2026-05-04 16:25 | 13.16699 | -78.41524 | 33928 ft | 498 kts | 355° |
| 2026-05-04 16:26 | 13.40970 | -78.42960 | 33937 ft | 497 kts | 355° |
| 2026-05-04 16:28 | 13.58363 | -78.43990 | 33938 ft | 498 kts | 355° |
| 2026-05-04 16:29 | 13.82632 | -78.45430 | 33941 ft | 498 kts | 355° |
| 2026-05-04 16:31 | 13.99974 | -78.46461 | 33945 ft | 497 kts | 355° |
| 2026-05-04 16:32 | 14.20788 | -78.47701 | 33949 ft | 498 kts | 355° |
| 2026-05-04 16:33 | 14.34618 | -78.48525 | 33950 ft | 497 kts | 355° |
| 2026-05-04 16:34 | 14.45003 | -78.49145 | 33953 ft | 497 kts | 355° |
| 2026-05-04 16:35 | 14.65798 | -78.50388 | 33955 ft | 496 kts | 355° |
| 2026-05-04 16:36 | 14.76176 | -78.51009 | 33961 ft | 496 kts | 355° |
| 2026-05-04 16:37 | 14.86544 | -78.51631 | 33963 ft | 496 kts | 355° |
| 2026-05-04 16:38 | 15.00330 | -78.52402 | 33955 ft | 496 kts | 356° |
| 2026-05-04 16:39 | 15.17606 | -78.52826 | 33958 ft | 496 kts | 357° |
| 2026-05-04 16:40 | 15.31456 | -78.53108 | 33965 ft | 496 kts | 356° |
| 2026-05-04 16:41 | 15.48750 | -78.53465 | 33977 ft | 495 kts | 356° |
| 2026-05-04 16:43 | 15.66024 | -78.53822 | 33979 ft | 495 kts | 356° |
| 2026-05-04 16:43 | 15.76394 | -78.54037 | 33981 ft | 495 kts | 356° |
| 2026-05-04 16:45 | 15.97137 | -78.54468 | 33986 ft | 496 kts | 356° |
| 2026-05-04 16:46 | 16.14461 | -78.54829 | 33988 ft | 495 kts | 356° |
| 2026-05-04 16:47 | 16.28266 | -78.55116 | 33986 ft | 496 kts | 356° |
| 2026-05-04 16:48 | 16.42159 | -78.55406 | 33986 ft | 496 kts | 356° |
| 2026-05-04 16:49 | 16.55960 | -78.55894 | 33987 ft | 495 kts | 354° |
| 2026-05-04 16:51 | 16.79629 | -78.57168 | 33983 ft | 496 kts | 355° |
| 2026-05-04 16:52 | 16.93455 | -78.57561 | 33982 ft | 497 kts | 355° |
| 2026-05-04 16:54 | 17.17641 | -78.58135 | 33997 ft | 497 kts | 356° |
| 2026-05-04 16:55 | 17.38431 | -78.58606 | 33999 ft | 498 kts | 355° |
| 2026-05-04 16:56 | 17.55754 | -78.58997 | 34002 ft | 498 kts | 355° |
| 2026-05-04 16:57 | 17.66191 | -78.59232 | 34007 ft | 497 kts | 355° |
| 2026-05-04 16:58 | 17.80022 | -78.59544 | 34006 ft | 497 kts | 355° |
| 2026-05-04 17:00 | 18.00869 | -78.60014 | 34008 ft | 499 kts | 355° |
| 2026-05-04 17:01 | 18.18221 | -78.60410 | 34007 ft | 497 kts | 355° |
| 2026-05-04 17:02 | 18.32057 | -78.60724 | 34008 ft | 496 kts | 355° |
| 2026-05-04 17:03 | 18.42449 | -78.60950 | 34008 ft | 497 kts | 355° |
| 2026-05-04 17:03 | 18.52843 | -78.61175 | 34008 ft | 498 kts | 355° |
| 2026-05-04 17:04 | 18.66725 | -78.61501 | 34008 ft | 497 kts | 355° |
| 2026-05-04 17:05 | 18.80601 | -78.61860 | 34008 ft | 497 kts | 355° |
| 2026-05-04 17:06 | 18.91008 | -78.62141 | 34007 ft | 496 kts | 355° |
| 2026-05-04 17:07 | 19.00211 | -78.62390 | 34008 ft | 497 kts | 354° |
| 2026-05-04 17:07 | 19.08348 | -78.62610 | 34008 ft | 498 kts | 354° |
| 2026-05-04 17:08 | 19.18758 | -78.62887 | 34008 ft | 496 kts | 354° |
| 2026-05-04 17:09 | 19.25678 | -78.63068 | 34008 ft | 497 kts | 354° |
| 2026-05-04 17:09 | 19.32621 | -78.63248 | 34008 ft | 498 kts | 354° |
| 2026-05-04 17:10 | 19.49997 | -78.63689 | 34007 ft | 498 kts | 354° |
| 2026-05-04 17:11 | 19.56953 | -78.63862 | 34008 ft | 499 kts | 354° |
| 2026-05-04 17:12 | 19.67378 | -78.64118 | 34007 ft | 498 kts | 354° |
| 2026-05-04 17:13 | 19.84748 | -78.64541 | 34010 ft | 498 kts | 354° |
| 2026-05-04 17:14 | 19.98659 | -78.64851 | 34009 ft | 499 kts | 355° |
| 2026-05-04 17:15 | 20.09126 | -78.64708 | 34007 ft | 502 kts | 356° |
| 2026-05-04 17:16 | 20.23085 | -78.64309 | 34003 ft | 500 kts | 356° |
| 2026-05-04 17:17 | 20.37102 | -78.63762 | 34001 ft | 502 kts | 357° |
| 2026-05-04 17:18 | 20.51037 | -78.63350 | 33998 ft | 503 kts | 356° |
| 2026-05-04 17:19 | 20.65107 | -78.62923 | 33999 ft | 501 kts | 356° |
| 2026-05-04 17:20 | 20.79130 | -78.62467 | 33993 ft | 504 kts | 356° |
| 2026-05-04 17:20 | 20.89625 | -78.62121 | 33989 ft | 503 kts | 356° |
| 2026-05-04 17:21 | 21.03679 | -78.61654 | 33997 ft | 504 kts | 356° |
| 2026-05-04 17:22 | 21.10727 | -78.61418 | 33988 ft | 504 kts | 356° |
| 2026-05-04 17:23 | 21.24782 | -78.60952 | 33987 ft | 505 kts | 356° |
| 2026-05-04 17:24 | 21.35307 | -78.60612 | 33983 ft | 505 kts | 356° |
| 2026-05-04 17:25 | 21.49420 | -78.60180 | 33971 ft | 505 kts | 355° |
| 2026-05-04 17:26 | 21.63491 | -78.59780 | 33968 ft | 505 kts | 355° |
| 2026-05-04 17:27 | 21.81092 | -78.59315 | 33970 ft | 506 kts | 355° |
| 2026-05-04 17:28 | 21.95238 | -78.58957 | 33966 ft | 506 kts | 355° |
| 2026-05-04 17:29 | 22.16409 | -78.58413 | 33964 ft | 505 kts | 355° |
| 2026-05-04 17:31 | 22.34123 | -78.57942 | 33968 ft | 507 kts | 355° |
| 2026-05-04 17:32 | 22.51800 | -78.57458 | 33975 ft | 507 kts | 355° |
| 2026-05-04 17:33 | 22.65981 | -78.57059 | 33973 ft | 508 kts | 355° |
| 2026-05-04 17:34 | 22.80060 | -78.57244 | 33980 ft | 499 kts | 346° |
| 2026-05-04 17:35 | 22.97163 | -78.60271 | 33986 ft | 496 kts | 343° |
| 2026-05-04 17:36 | 23.04002 | -78.61494 | 33992 ft | 495 kts | 343° |
| 2026-05-04 17:36 | 23.10816 | -78.62775 | 34009 ft | 495 kts | 343° |
| 2026-05-04 17:37 | 23.17602 | -78.64037 | 34003 ft | 494 kts | 343° |
| 2026-05-04 17:37 | 23.24396 | -78.65283 | 34009 ft | 495 kts | 343° |
| 2026-05-04 17:38 | 23.31194 | -78.66512 | 34006 ft | 496 kts | 343° |
| 2026-05-04 17:38 | 23.38016 | -78.67727 | 34008 ft | 496 kts | 343° |
| 2026-05-04 17:39 | 23.48216 | -78.69535 | 34002 ft | 494 kts | 343° |
| 2026-05-04 17:39 | 23.55016 | -78.70747 | 34009 ft | 493 kts | 343° |
| 2026-05-04 17:40 | 23.61789 | -78.71975 | 34008 ft | 489 kts | 343° |
| 2026-05-04 17:40 | 23.68520 | -78.73220 | 34009 ft | 490 kts | 343° |
| 2026-05-04 17:41 | 23.75227 | -78.74468 | 34008 ft | 490 kts | 343° |
| 2026-05-04 17:41 | 23.81971 | -78.75726 | 34009 ft | 489 kts | 343° |
| 2026-05-04 17:42 | 23.88703 | -78.76985 | 34010 ft | 489 kts | 343° |
| 2026-05-04 17:42 | 23.95406 | -78.78240 | 34007 ft | 488 kts | 342° |
| 2026-05-04 17:43 | 23.98667 | -78.79066 | 34006 ft | 477 kts | 335° |
| 2026-05-04 17:43 | 24.01751 | -78.80397 | 34016 ft | 472 kts | 328° |
| 2026-05-04 17:43 | 24.07550 | -78.83792 | 34010 ft | 466 kts | 323° |
| 2026-05-04 17:44 | 24.13099 | -78.87413 | 34013 ft | 464 kts | 322° |
| 2026-05-04 17:44 | 24.18621 | -78.91054 | 33970 ft | 454 kts | 322° |
| 2026-05-04 17:45 | 24.23962 | -78.94570 | 33516 ft | 443 kts | 322° |
| 2026-05-04 17:45 | 24.26545 | -78.96338 | 33100 ft | 441 kts | 321° |
| 2026-05-04 17:45 | 24.29108 | -78.98177 | 32696 ft | 439 kts | 320° |
| 2026-05-04 17:46 | 24.31650 | -79.00059 | 32289 ft | 436 kts | 320° |
| 2026-05-04 17:46 | 24.34167 | -79.01901 | 31883 ft | 432 kts | 321° |
| 2026-05-04 17:46 | 24.36661 | -79.03667 | 31478 ft | 427 kts | 322° |
| 2026-05-04 17:46 | 24.39188 | -79.05404 | 31069 ft | 422 kts | 322° |
| 2026-05-04 17:47 | 24.41671 | -79.07078 | 30666 ft | 417 kts | 323° |
| 2026-05-04 17:47 | 24.44150 | -79.08733 | 30258 ft | 414 kts | 323° |
| 2026-05-04 17:47 | 24.46599 | -79.10362 | 29853 ft | 411 kts | 323° |
| 2026-05-04 17:47 | 24.49034 | -79.11987 | 29446 ft | 408 kts | 323° |
| 2026-05-04 17:48 | 24.51458 | -79.13615 | 29036 ft | 406 kts | 323° |
| 2026-05-04 17:48 | 24.53861 | -79.15234 | 28620 ft | 403 kts | 323° |
| 2026-05-04 17:48 | 24.56241 | -79.16843 | 28200 ft | 401 kts | 323° |
| 2026-05-04 17:48 | 24.58626 | -79.18459 | 27782 ft | 400 kts | 323° |
| 2026-05-04 17:49 | 24.60981 | -79.20058 | 27366 ft | 398 kts | 323° |
| 2026-05-04 17:49 | 24.63314 | -79.21641 | 26953 ft | 396 kts | 323° |
| 2026-05-04 17:49 | 24.65645 | -79.23224 | 26544 ft | 393 kts | 323° |
| 2026-05-04 17:49 | 24.67981 | -79.24811 | 26141 ft | 390 kts | 323° |
| 2026-05-04 17:50 | 24.70293 | -79.26382 | 25739 ft | 388 kts | 323° |
| 2026-05-04 17:50 | 24.72578 | -79.27938 | 25339 ft | 387 kts | 323° |
| 2026-05-04 17:50 | 24.74843 | -79.29481 | 24945 ft | 386 kts | 323° |
| 2026-05-04 17:50 | 24.77139 | -79.31044 | 24543 ft | 384 kts | 323° |
| 2026-05-04 17:51 | 24.79393 | -79.32580 | 24147 ft | 382 kts | 323° |
| 2026-05-04 17:51 | 24.81662 | -79.34125 | 23748 ft | 380 kts | 323° |
| 2026-05-04 17:51 | 24.83923 | -79.35656 | 23337 ft | 380 kts | 323° |
| 2026-05-04 17:51 | 24.86159 | -79.37165 | 22926 ft | 381 kts | 324° |
| 2026-05-04 17:52 | 24.88416 | -79.38683 | 22516 ft | 379 kts | 324° |
| 2026-05-04 17:52 | 24.90670 | -79.40195 | 22136 ft | 376 kts | 324° |
| 2026-05-04 17:52 | 24.92913 | -79.41698 | 21747 ft | 373 kts | 323° |
| 2026-05-04 17:52 | 24.95112 | -79.43175 | 21367 ft | 370 kts | 324° |
| 2026-05-04 17:53 | 24.97315 | -79.44653 | 20981 ft | 369 kts | 324° |
| 2026-05-04 17:53 | 24.99512 | -79.46129 | 20566 ft | 368 kts | 323° |
| 2026-05-04 17:53 | 25.01697 | -79.47597 | 20134 ft | 367 kts | 323° |
| 2026-05-04 17:53 | 25.03844 | -79.49039 | 19708 ft | 365 kts | 324° |
| 2026-05-04 17:54 | 25.06019 | -79.50499 | 19271 ft | 362 kts | 323° |
| 2026-05-04 17:54 | 25.08173 | -79.51945 | 18838 ft | 361 kts | 324° |
| 2026-05-04 17:54 | 25.10316 | -79.53384 | 18405 ft | 359 kts | 323° |
| 2026-05-04 17:54 | 25.12457 | -79.54822 | 17970 ft | 358 kts | 323° |
| 2026-05-04 17:55 | 25.14583 | -79.56250 | 17536 ft | 356 kts | 323° |
| 2026-05-04 17:55 | 25.16692 | -79.57665 | 17108 ft | 354 kts | 323° |
| 2026-05-04 17:55 | 25.18785 | -79.59071 | 16680 ft | 351 kts | 323° |
| 2026-05-04 17:55 | 25.20844 | -79.60452 | 16254 ft | 348 kts | 323° |
| 2026-05-04 17:56 | 25.22924 | -79.61848 | 15870 ft | 344 kts | 324° |
| 2026-05-04 17:56 | 25.24954 | -79.63209 | 15514 ft | 339 kts | 323° |
| 2026-05-04 17:56 | 25.26959 | -79.64554 | 15189 ft | 335 kts | 323° |
| 2026-05-04 17:56 | 25.28955 | -79.65891 | 15007 ft | 330 kts | 323° |
| 2026-05-04 17:57 | 25.30917 | -79.67208 | 14835 ft | 335 kts | 323° |
| 2026-05-04 17:57 | 25.32906 | -79.68546 | 14593 ft | 335 kts | 323° |
| 2026-05-04 17:57 | 25.34900 | -79.69881 | 14350 ft | 332 kts | 323° |
| 2026-05-04 17:57 | 25.36845 | -79.71235 | 14080 ft | 328 kts | 319° |
| 2026-05-04 17:58 | 25.38585 | -79.72873 | 13735 ft | 324 kts | 310° |
| 2026-05-04 17:58 | 25.40067 | -79.74701 | 13384 ft | 320 kts | 305° |
| 2026-05-04 17:58 | 25.41426 | -79.76627 | 13030 ft | 317 kts | 303° |
| 2026-05-04 17:58 | 25.42744 | -79.78606 | 12670 ft | 315 kts | 302° |
| 2026-05-04 17:59 | 25.44022 | -79.80564 | 12317 ft | 314 kts | 302° |
| 2026-05-04 17:59 | 25.45285 | -79.82515 | 12011 ft | 312 kts | 302° |
| 2026-05-04 17:59 | 25.47756 | -79.86336 | 11754 ft | 298 kts | 302° |
| 2026-05-04 18:00 | 25.48946 | -79.88179 | 11387 ft | 288 kts | 302° |
| 2026-05-04 18:00 | 25.50104 | -79.89975 | 11031 ft | 286 kts | 302° |
| 2026-05-04 18:00 | 25.51243 | -79.91746 | 10672 ft | 284 kts | 302° |
| 2026-05-04 18:00 | 25.52387 | -79.93523 | 10307 ft | 282 kts | 302° |
| 2026-05-04 18:01 | 25.53521 | -79.95289 | 9943 ft | 281 kts | 302° |
| 2026-05-04 18:01 | 25.54652 | -79.97048 | 9581 ft | 279 kts | 302° |
| 2026-05-04 18:01 | 25.55757 | -79.98769 | 9232 ft | 272 kts | 302° |
| 2026-05-04 18:02 | 25.57880 | -80.02078 | 8962 ft | 252 kts | 302° |
| 2026-05-04 18:02 | 25.58887 | -80.03651 | 8950 ft | 250 kts | 302° |
| 2026-05-04 18:02 | 25.59895 | -80.05227 | 8957 ft | 254 kts | 302° |
| 2026-05-04 18:02 | 25.60919 | -80.06828 | 8949 ft | 253 kts | 302° |
| 2026-05-04 18:03 | 25.61942 | -80.08427 | 8935 ft | 254 kts | 302° |
| 2026-05-04 18:03 | 25.62971 | -80.10038 | 8812 ft | 256 kts | 302° |
| 2026-05-04 18:03 | 25.63991 | -80.11636 | 8617 ft | 251 kts | 302° |
| 2026-05-04 18:03 | 25.64929 | -80.13216 | 8426 ft | 242 kts | 297° |
| 2026-05-04 18:04 | 25.65748 | -80.14845 | 8232 ft | 238 kts | 295° |
| 2026-05-04 18:04 | 25.66500 | -80.16491 | 7902 ft | 243 kts | 294° |
| 2026-05-04 18:04 | 25.67953 | -80.19836 | 7326 ft | 238 kts | 293° |
| 2026-05-04 18:05 | 25.68660 | -80.21494 | 7047 ft | 236 kts | 293° |
| 2026-05-04 18:05 | 25.69356 | -80.23128 | 6761 ft | 237 kts | 294° |
| 2026-05-04 18:05 | 25.70053 | -80.24769 | 6472 ft | 237 kts | 294° |
| 2026-05-04 18:05 | 25.70665 | -80.26447 | 6180 ft | 234 kts | 284° |
| 2026-05-04 18:06 | 25.71030 | -80.30039 | 5560 ft | 235 kts | 270° |
| 2026-05-04 18:06 | 25.71011 | -80.31850 | 5233 ft | 237 kts | 269° |
| 2026-05-04 18:06 | 25.70953 | -80.33645 | 4899 ft | 229 kts | 268° |
| 2026-05-04 18:07 | 25.70869 | -80.35410 | 4508 ft | 230 kts | 266° |
| 2026-05-04 18:07 | 25.70700 | -80.37190 | 4118 ft | 231 kts | 265° |
| 2026-05-04 18:07 | 25.70516 | -80.38948 | 3756 ft | 230 kts | 265° |
| 2026-05-04 18:07 | 25.70325 | -80.40694 | 3395 ft | 229 kts | 265° |
| 2026-05-04 18:08 | 25.70133 | -80.42442 | 3102 ft | 226 kts | 265° |
| 2026-05-04 18:08 | 25.69935 | -80.44171 | 2998 ft | 224 kts | 265° |
| 2026-05-04 18:08 | 25.69733 | -80.45904 | 2973 ft | 230 kts | 265° |
| 2026-05-04 18:08 | 25.69531 | -80.47656 | 2965 ft | 229 kts | 267° |
| 2026-05-04 18:09 | 25.70965 | -80.50475 | 2515 ft | 214 kts | 343° |
| 2026-05-04 18:09 | 25.73888 | -80.51093 | 2468 ft | 214 kts | 353° |
| 2026-05-04 18:10 | 25.75358 | -80.51338 | 2468 ft | 215 kts | 353° |
| 2026-05-04 18:10 | 25.76855 | -80.51595 | 2466 ft | 216 kts | 353° |
| 2026-05-04 18:10 | 25.78306 | -80.51424 | 2465 ft | 212 kts | 28° |
| 2026-05-04 18:10 | 25.79440 | -80.50372 | 2462 ft | 214 kts | 58° |
| 2026-05-04 18:11 | 25.79796 | -80.48788 | 2466 ft | 217 kts | 96° |
| 2026-05-04 18:11 | 25.79393 | -80.47151 | 2461 ft | 218 kts | 93° |
| 2026-05-04 18:11 | 25.79471 | -80.45490 | 2474 ft | 218 kts | 84° |
| 2026-05-04 18:11 | 25.79525 | -80.43823 | 2319 ft | 215 kts | 86° |
| 2026-05-04 18:12 | 25.79570 | -80.42186 | 2067 ft | 208 kts | 85° |
| 2026-05-04 18:12 | 25.79627 | -80.40614 | 1804 ft | 203 kts | 85° |
| 2026-05-04 18:12 | 25.79690 | -80.39071 | 1575 ft | 192 kts | 85° |
| 2026-05-04 18:12 | 25.79749 | -80.37657 | 1302 ft | 178 kts | 85° |
| 2026-05-04 18:13 | 25.79806 | -80.36326 | 1057 ft | 164 kts | 85° |
| 2026-05-04 18:13 | 25.79857 | -80.35119 | 873 ft | 155 kts | 85° |
| 2026-05-04 18:13 | 25.79960 | -80.32796 | 499 ft | 149 kts | 85° |
| 2026-05-04 18:14 | 25.80007 | -80.31645 | 325 ft | 148 kts | 85° |
| 2026-05-04 18:14 | 25.80056 | -80.30501 | 127 ft | 148 kts | 86° |
| 2026-05-04 18:14 | 25.80106 | -80.29374 | 18 ft | 144 kts | 85° |
| 2026-05-04 18:15 | 25.80159 | -80.28015 | 15 ft | 30 kts | 88° |
| 2026-05-04 18:15 | 25.80176 | -80.27670 | 15 ft | 12 kts | 71° |
| 2026-05-04 18:15 | 25.80225 | -80.27625 | 15 ft | 6 kts | 8° |
| 2026-05-04 18:16 | 25.80263 | -80.27621 | 15 ft | 4 kts | 15° |
| 2026-05-04 18:16 | 25.80285 | -80.27610 | 15 ft | 2 kts | 39° |
| 2026-05-04 18:16 | 25.80286 | -80.27608 | 15 ft | 0 kts | 42° |
| 2026-05-04 18:17 | 25.80333 | -80.27589 | 15 ft | 10 kts | 3° |
| 2026-05-04 18:17 | 25.80409 | -80.27590 | 15 ft | 11 kts | 357° |
| 2026-05-04 18:17 | 25.80515 | -80.27560 | 15 ft | 6 kts | 69° |
| 2026-05-04 18:18 | 25.80515 | -80.27518 | 15 ft | 5 kts | 104° |
| 2026-05-04 18:18 | 25.80505 | -80.27472 | 15 ft | 6 kts | 101° |
| 2026-05-04 18:18 | 25.80516 | -80.27418 | 15 ft | 8 kts | 76° |
| 2026-05-04 18:18 | 25.80523 | -80.27341 | 15 ft | 12 kts | 85° |
| 2026-05-04 18:19 | 25.80530 | -80.27106 | 15 ft | 16 kts | 88° |
| 2026-05-04 18:19 | 25.80536 | -80.26978 | 15 ft | 15 kts | 88° |
| 2026-05-04 18:19 | 25.80541 | -80.26874 | 15 ft | 11 kts | 87° |
| 2026-05-04 18:20 | 25.80532 | -80.26823 | 15 ft | 5 kts | 147° |
| 2026-05-04 18:20 | 25.80497 | -80.26814 | 15 ft | 5 kts | 174° |
| 2026-05-04 18:20 | 25.80471 | -80.26812 | 15 ft | 2 kts | 177° |
| 2026-05-04 18:20 | 25.80463 | -80.26811 | 15 ft | 0 kts | 177° |